Time;durP1;ratioP1;P1;durP2;ratioP2;P2;SDS_P1;SDS_P2;PMS_P1;PMS_P2;Temp;Humidity;BMP_temperature;BMP_pressure;BME280_temperature;BME280_humidity;BME280_pressure;Samples;Min_cycle;Max_cycle;Signal;HPM_P1;HPM_P2
2021/12/11 00:01:24;;;;;;;43.65;27.05;;;-2.00;99.90;;;;;;4982002;28;20070;-68
2021/12/11 00:03:57;;;;;;;45.92;26.85;;;-2.00;99.90;;;;;;4998271;28;20061;-67
2021/12/11 00:06:27;;;;;;;49.05;28.17;;;-1.70;99.90;;;;;;4981497;28;20050;-67
2021/12/11 00:08:56;;;;;;;50.40;27.13;;;-2.00;99.90;;;;;;4981096;28;20046;-66
2021/12/11 00:11:47;;;;;;;47.17;27.58;;;-2.10;99.90;;;;;;4998882;28;20064;-66
2021/12/11 00:14:14;;;;;;;44.05;27.58;;;-2.10;99.90;;;;;;4998460;28;20089;-67
2021/12/11 00:16:41;;;;;;;44.45;27.45;;;-1.10;99.90;;;;;;4998650;28;20336;-66
2021/12/11 00:19:16;;;;;;;45.35;26.98;;;-2.10;99.90;;;;;;4964852;28;20093;-67
2021/12/11 00:21:43;;;;;;;41.80;26.70;;;-2.10;99.90;;;;;;4997912;28;20463;-66
2021/12/11 00:24:08;;;;;;;48.42;28.60;;;-2.10;99.90;;;;;;4997539;28;20162;-67
2021/12/11 00:26:38;;;;;;;45.58;27.60;;;-2.10;99.90;;;;;;4998373;28;20053;-67
2021/12/11 00:29:06;;;;;;;45.03;26.92;;;-2.10;99.90;;;;;;5003978;28;20046;-67
2021/12/11 00:31:33;;;;;;;40.60;24.73;;;-2.10;99.90;;;;;;5017769;28;20046;-68
2021/12/11 00:33:59;;;;;;;42.63;25.77;;;-2.20;99.90;;;;;;5017680;28;20053;-66
2021/12/11 00:36:32;;;;;;;39.83;23.98;;;-2.20;99.90;;;;;;5000828;28;20049;-67
2021/12/11 00:39:11;;;;;;;37.25;24.20;;;-2.20;99.90;;;;;;5000513;28;20053;-68
2021/12/11 00:41:38;;;;;;;37.78;23.98;;;-2.20;99.90;;;;;;5000473;28;20042;-68
2021/12/11 00:44:05;;;;;;;35.60;21.98;;;-2.20;99.90;;;;;;5017646;28;20088;-67
2021/12/11 00:46:33;;;;;;;36.47;21.73;;;-2.30;99.90;;;;;;5017474;28;20183;-67
2021/12/11 00:49:12;;;;;;;36.35;21.45;;;-2.30;99.90;;;;;;5017431;28;20046;-67
2021/12/11 00:51:38;;;;;;;38.70;22.00;;;-2.30;99.90;;;;;;5017443;28;20192;-66
2021/12/11 00:54:05;;;;;;;38.33;21.63;;;-2.30;99.90;;;;;;5017714;28;20054;-67
2021/12/11 00:56:34;;;;;;;37.55;21.63;;;-2.30;99.90;;;;;;5017513;28;20065;-68
2021/12/11 00:59:04;;;;;;;37.45;21.95;;;-2.30;99.90;;;;;;4999110;28;20117;-67
2021/12/11 01:01:33;;;;;;;42.00;23.30;;;-1.70;99.90;;;;;;4980650;28;20390;-66
2021/12/11 01:04:10;;;;;;;34.67;21.58;;;-2.30;99.90;;;;;;4997872;28;20046;-68
2021/12/11 01:06:54;;;;;;;34.63;21.40;;;-2.30;99.90;;;;;;4997545;28;20462;-66
2021/12/11 01:09:22;;;;;;;40.28;20.88;;;-2.30;99.90;;;;;;4979998;28;20125;-68
2021/12/11 01:11:51;;;;;;;36.10;21.63;;;-2.30;99.90;;;;;;4980354;28;20051;-66
2021/12/11 01:14:33;;;;;;;34.80;21.10;;;-2.30;99.90;;;;;;4980687;28;20129;-68
2021/12/11 01:17:12;;;;;;;33.00;20.75;;;-2.40;99.90;;;;;;4980195;28;20078;-68
2021/12/11 01:19:41;;;;;;;34.30;21.08;;;-2.40;99.90;;;;;;4997389;28;20043;-68
2021/12/11 01:22:21;;;;;;;33.85;19.80;;;-2.30;99.90;;;;;;4996897;28;20185;-67
2021/12/11 01:24:52;;;;;;;37.55;21.35;;;-2.40;99.90;;;;;;4979918;28;20056;-66
2021/12/11 01:27:23;;;;;;;39.00;21.17;;;-2.40;99.90;;;;;;5003266;28;20358;-67
2021/12/11 01:29:50;;;;;;;41.95;22.25;;;-1.90;99.90;;;;;;4999089;28;20076;-67
2021/12/11 01:32:16;;;;;;;40.42;21.85;;;-1.40;99.90;;;;;;5015678;28;20049;-66
2021/12/11 01:34:44;;;;;;;35.75;22.17;;;-2.40;99.90;;;;;;5015400;28;20056;-67
2021/12/11 01:37:10;;;;;;;38.78;21.98;;;-2.40;99.90;;;;;;5016787;28;20049;-67
2021/12/11 01:39:39;;;;;;;38.88;21.77;;;-2.30;99.90;;;;;;5016445;28;20502;-69
2021/12/11 01:42:16;;;;;;;45.50;22.02;;;-2.40;99.90;;;;;;4999533;28;20418;-68
2021/12/11 01:44:44;;;;;;;38.65;23.08;;;-2.30;99.90;;;;;;4999053;28;20084;-67
2021/12/11 01:47:14;;;;;;;40.50;22.15;;;-1.90;99.90;;;;;;5016658;28;20042;-68
2021/12/11 01:49:43;;;;;;;36.00;21.02;;;-2.40;99.90;;;;;;5015594;28;20053;-67
2021/12/11 01:52:29;;;;;;;32.60;19.90;;;-2.40;99.90;;;;;;5016198;28;20041;-68
2021/12/11 01:54:56;;;;;;;38.80;20.48;;;-2.50;99.90;;;;;;5016323;28;20061;-68
2021/12/11 01:57:27;;;;;;;37.33;21.55;;;-2.50;99.90;;;;;;5009170;28;20085;-68
2021/12/11 02:00:01;;;;;;;36.17;21.33;;;-2.60;99.90;;;;;;4979121;28;20477;-67
2021/12/11 02:02:32;;;;;;;38.30;22.70;;;-2.60;99.90;;;;;;4996504;28;20042;-67
2021/12/11 02:04:59;;;;;;;41.30;22.75;;;-2.50;99.90;;;;;;4996414;28;20129;-66
2021/12/11 02:07:35;;;;;;;38.47;23.00;;;-2.50;99.90;;;;;;4996506;28;20134;-67
2021/12/11 02:10:09;;;;;;;42.83;23.27;;;-2.50;99.90;;;;;;4979430;28;20081;-68
2021/12/11 02:12:39;;;;;;;44.90;24.90;;;-2.50;99.90;;;;;;4987650;28;20427;-68
2021/12/11 02:15:09;;;;;;;40.50;23.70;;;-2.60;99.90;;;;;;4998660;28;20131;-66
2021/12/11 02:17:41;;;;;;;42.70;23.90;;;-2.50;99.90;;;;;;5015864;28;20498;-67
2021/12/11 02:20:11;;;;;;;41.75;24.45;;;-2.50;99.90;;;;;;5015776;28;20061;-68
2021/12/11 02:22:42;;;;;;;39.40;23.30;;;-2.60;99.90;;;;;;5015767;28;20105;-66
2021/12/11 02:25:21;;;;;;;38.42;23.42;;;-2.60;99.90;;;;;;5015599;28;20049;-66
2021/12/11 02:27:52;;;;;;;38.05;23.23;;;-2.60;99.90;;;;;;4987808;28;20117;-66
2021/12/11 02:30:20;;;;;;;44.30;24.40;;;-1.90;99.90;;;;;;4979013;28;20061;-66
2021/12/11 02:32:59;;;;;;;42.72;24.20;;;-2.60;99.90;;;;;;4996124;28;20054;-68
2021/12/11 02:35:37;;;;;;;38.83;25.08;;;-2.60;99.90;;;;;;4978907;28;20069;-68
2021/12/11 02:38:36;;;;;;;41.92;25.60;;;-2.60;99.90;;;;;;4978436;28;20050;-67
2021/12/11 02:41:23;;;;;;;42.22;24.70;;;-2.60;99.90;;;;;;4995635;28;20522;-69
2021/12/11 02:43:55;;;;;;;38.65;23.67;;;-2.60;99.90;;;;;;4978981;28;20057;-66
2021/12/11 02:46:29;;;;;;;44.78;24.75;;;-2.60;99.90;;;;;;4995803;28;20426;-66
2021/12/11 02:49:11;;;;;;;44.65;26.05;;;-2.60;99.90;;;;;;4979721;28;20050;-67
2021/12/11 02:51:49;;;;;;;40.90;24.90;;;-2.60;99.90;;;;;;4978982;28;20050;-66
2021/12/11 02:54:37;;;;;;;49.83;25.88;;;-2.60;99.90;;;;;;4978381;28;20076;-66
2021/12/11 02:57:18;;;;;;;38.28;23.08;;;-2.60;99.90;;;;;;4994692;28;20478;-68
2021/12/11 02:59:46;;;;;;;38.80;22.58;;;-2.60;99.90;;;;;;4978221;28;20053;-66
2021/12/11 03:02:23;;;;;;;47.58;25.00;;;-2.60;99.90;;;;;;4995548;28;20046;-69
2021/12/11 03:04:54;;;;;;;43.95;24.38;;;-2.70;99.90;;;;;;4995544;28;20065;-67
2021/12/11 03:07:35;;;;;;;39.45;22.92;;;-2.70;99.90;;;;;;4978326;28;20050;-66
2021/12/11 03:10:04;;;;;;;44.70;22.83;;;-2.70;99.90;;;;;;4995756;28;20097;-67
2021/12/11 03:12:29;;;;;;;41.10;24.50;;;-2.70;99.90;;;;;;5004519;28;20061;-67
2021/12/11 03:14:55;;;;;;;36.28;22.60;;;-2.70;99.90;;;;;;4982054;28;20132;-66
2021/12/11 03:17:22;;;;;;;43.90;25.58;;;-2.80;99.90;;;;;;4998146;28;20425;-68
2021/12/11 03:19:48;;;;;;;43.33;25.92;;;-2.70;99.90;;;;;;4997854;28;20463;-66
2021/12/11 03:22:20;;;;;;;48.67;25.58;;;-2.70;99.90;;;;;;4997805;28;20092;-67
2021/12/11 03:24:46;;;;;;;43.25;23.80;;;-2.70;99.90;;;;;;5014891;28;20053;-69
2021/12/11 03:27:13;;;;;;;45.75;26.75;;;-2.60;99.90;;;;;;5014927;28;20045;-67
2021/12/11 03:29:40;;;;;;;50.58;24.63;;;-2.70;99.90;;;;;;5014755;28;20075;-68
2021/12/11 03:32:08;;;;;;;43.90;24.48;;;-2.70;99.90;;;;;;5014890;28;20061;-68
2021/12/11 03:34:35;;;;;;;46.65;24.67;;;-2.70;99.90;;;;;;5014877;28;20386;-66
2021/12/11 03:37:04;;;;;;;46.17;25.75;;;-2.70;99.90;;;;;;4997822;28;20056;-68
2021/12/11 03:39:37;;;;;;;50.40;26.83;;;-2.70;99.90;;;;;;4997153;28;20050;-68
2021/12/11 03:42:12;;;;;;;47.70;25.48;;;-2.60;99.90;;;;;;5009362;28;20049;-67
2021/12/11 03:44:38;;;;;;;42.22;24.10;;;-2.60;99.90;;;;;;4995130;28;20129;-67
2021/12/11 03:47:09;;;;;;;47.35;24.35;;;-2.70;99.90;;;;;;4977890;28;20059;-68
2021/12/11 03:49:35;;;;;;;46.58;25.20;;;-2.70;99.90;;;;;;4977956;28;20054;-68
2021/12/11 03:52:04;;;;;;;43.53;25.00;;;-2.70;99.90;;;;;;4977560;28;20201;-67
2021/12/11 03:54:33;;;;;;;46.72;25.77;;;-2.20;99.90;;;;;;4995089;28;20046;-67
2021/12/11 03:56:59;;;;;;;40.13;24.30;;;-2.70;99.90;;;;;;4977657;28;20105;-67
2021/12/11 03:59:25;;;;;;;47.00;25.33;;;-2.90;99.90;;;;;;4981742;28;20046;-67
2021/12/11 04:01:56;;;;;;;53.33;26.70;;;-2.80;99.90;;;;;;4981346;28;20486;-69
2021/12/11 04:04:24;;;;;;;50.03;27.77;;;-2.70;99.90;;;;;;4981392;28;20082;-68
2021/12/11 04:06:50;;;;;;;52.30;27.25;;;-2.60;99.90;;;;;;4998454;28;20038;-68
2021/12/11 04:09:18;;;;;;;61.08;29.98;;;-2.70;99.90;;;;;;4981502;28;20050;-66
2021/12/11 04:11:44;;;;;;;60.80;29.65;;;-2.60;99.90;;;;;;5003482;28;20121;-66
2021/12/11 04:14:13;;;;;;;60.80;29.45;;;-2.40;99.90;;;;;;5000444;28;20484;-67
2021/12/11 04:16:40;;;;;;;65.88;30.23;;;-2.40;99.90;;;;;;5001007;28;20077;-66
2021/12/11 04:19:07;;;;;;;56.33;29.10;;;-2.40;99.90;;;;;;5000675;28;20054;-67
2021/12/11 04:21:33;;;;;;;61.05;31.58;;;-2.40;99.90;;;;;;4992961;28;20133;-68
2021/12/11 04:24:01;;;;;;;60.58;29.45;;;-2.40;99.90;;;;;;4997561;28;20145;-66
2021/12/11 04:26:27;;;;;;;61.95;30.67;;;-2.40;99.90;;;;;;4981069;28;20108;-68
2021/12/11 04:28:53;;;;;;;66.53;30.98;;;-2.40;99.90;;;;;;4981050;28;20042;-67
2021/12/11 04:31:28;;;;;;;56.97;29.27;;;-2.40;99.90;;;;;;4998237;28;20061;-66
2021/12/11 04:33:59;;;;;;;48.97;27.02;;;-2.50;99.90;;;;;;4981036;28;20375;-68
2021/12/11 04:36:31;;;;;;;53.85;26.73;;;-2.50;99.90;;;;;;4997979;28;20376;-68
2021/12/11 04:38:58;;;;;;;54.40;28.15;;;-2.50;99.90;;;;;;4980716;28;20345;-68
2021/12/11 04:41:35;;;;;;;53.92;28.50;;;-1.90;99.90;;;;;;5000079;28;20328;-68
2021/12/11 04:44:06;;;;;;;59.17;30.13;;;-2.50;99.90;;;;;;5017462;28;20046;-67
2021/12/11 04:46:32;;;;;;;59.58;29.55;;;-2.50;99.90;;;;;;5016709;28;20060;-67
2021/12/11 04:49:10;;;;;;;62.38;29.42;;;-2.50;99.90;;;;;;5000275;28;20417;-67
2021/12/11 04:54:28;;;;;;;57.00;28.50;;;-2.50;99.90;;;;;;5017550;28;20143;-67
2021/12/11 05:00:06;;;;;;;61.08;28.98;;;-2.40;99.90;;;;;;5017261;28;20468;-68
2021/12/11 05:10:39;;;;;;;52.25;26.90;;;-2.60;99.90;;;;;;4994155;28;20068;-67
2021/12/11 05:13:06;;;;;;;53.70;26.63;;;-2.60;99.90;;;;;;4981589;28;20054;-67
2021/12/11 05:15:38;;;;;;;52.03;27.95;;;-2.60;99.90;;;;;;4997277;28;20359;-67
2021/12/11 05:18:08;;;;;;;45.88;26.30;;;-1.90;99.90;;;;;;4980239;28;20050;-68
2021/12/11 05:20:34;;;;;;;50.85;26.65;;;-2.60;99.90;;;;;;4997553;28;20050;-66
2021/12/11 05:23:00;;;;;;;48.22;25.85;;;-2.70;99.90;;;;;;4996836;28;20439;-67
2021/12/11 05:25:26;;;;;;;47.95;27.52;;;-2.70;99.90;;;;;;4997271;28;20038;-67
2021/12/11 05:27:53;;;;;;;51.85;27.13;;;-2.70;99.90;;;;;;4979593;28;20104;-66
2021/12/11 05:30:22;;;;;;;51.08;28.13;;;-2.10;99.90;;;;;;4980751;28;20419;-68
2021/12/11 05:32:49;;;;;;;56.20;27.20;;;-2.70;99.90;;;;;;4980686;28;20043;-68
2021/12/11 05:35:17;;;;;;;51.95;28.05;;;-2.70;99.90;;;;;;4997237;28;20120;-67
2021/12/11 05:37:43;;;;;;;50.63;26.88;;;-2.80;99.90;;;;;;4997109;28;20050;-67
2021/12/11 05:40:11;;;;;;;52.35;27.35;;;-2.70;99.90;;;;;;4997093;28;20046;-68
2021/12/11 05:42:36;;;;;;;47.83;25.33;;;-2.70;99.90;;;;;;4992760;28;20061;-68
2021/12/11 05:45:04;;;;;;;47.75;25.90;;;-2.70;99.90;;;;;;5016829;28;20347;-68
2021/12/11 05:47:30;;;;;;;50.42;26.98;;;-2.70;99.90;;;;;;5016248;28;20064;-67
2021/12/11 05:49:57;;;;;;;45.17;25.48;;;-2.70;99.90;;;;;;5016570;28;20058;-67
2021/12/11 05:52:23;;;;;;;48.63;26.10;;;-2.80;99.90;;;;;;5016267;28;20041;-67
2021/12/11 05:54:50;;;;;;;44.75;25.73;;;-2.70;99.90;;;;;;4999097;28;20061;-68
2021/12/11 05:57:18;;;;;;;54.08;28.52;;;-2.70;99.90;;;;;;5016127;28;20116;-69
2021/12/11 05:59:45;;;;;;;44.72;25.05;;;-2.70;99.90;;;;;;4999210;28;20103;-68
2021/12/11 06:02:18;;;;;;;47.30;27.27;;;-2.70;99.90;;;;;;5016507;28;20041;-67
2021/12/11 06:04:47;;;;;;;51.08;25.27;;;-2.60;99.90;;;;;;5016376;28;20351;-68
2021/12/11 06:07:15;;;;;;;50.95;26.90;;;-2.80;99.90;;;;;;5016046;28;20100;-67
2021/12/11 06:09:47;;;;;;;43.55;25.85;;;-2.80;99.90;;;;;;5014592;28;20100;-67
2021/12/11 06:12:16;;;;;;;44.28;25.75;;;-2.80;99.90;;;;;;4985408;28;20065;-67
2021/12/11 06:14:43;;;;;;;47.90;25.90;;;-2.80;99.90;;;;;;4996168;28;20046;-68
2021/12/11 06:17:12;;;;;;;50.42;26.02;;;-2.80;99.90;;;;;;4979118;28;20050;-68
2021/12/11 06:19:41;;;;;;;51.15;25.48;;;-2.80;99.90;;;;;;4979280;28;20482;-68
2021/12/11 06:22:06;;;;;;;45.95;25.52;;;-2.80;99.90;;;;;;4994437;28;20097;-68
2021/12/11 06:24:32;;;;;;;48.58;27.02;;;-2.80;99.90;;;;;;4995308;28;20085;-69
2021/12/11 06:26:59;;;;;;;46.35;25.42;;;-2.80;99.90;;;;;;4996332;28;20069;-68
2021/12/11 06:29:26;;;;;;;45.85;26.15;;;-2.40;99.90;;;;;;4995928;28;20061;-66
2021/12/11 06:31:52;;;;;;;44.72;26.02;;;-2.90;99.90;;;;;;4979098;28;20129;-67
2021/12/11 06:34:18;;;;;;;54.25;26.42;;;-2.90;99.90;;;;;;4996082;28;20538;-66
2021/12/11 06:36:45;;;;;;;50.95;27.42;;;-2.70;99.90;;;;;;4979024;28;20057;-67
2021/12/11 06:39:15;;;;;;;55.63;28.85;;;-2.80;99.90;;;;;;4978794;28;20050;-66
2021/12/11 06:41:43;;;;;;;49.72;27.63;;;-2.80;99.90;;;;;;5004257;28;20069;-66
2021/12/11 06:44:09;;;;;;;53.67;27.55;;;-2.80;99.90;;;;;;5015207;28;20045;-67
2021/12/11 06:46:36;;;;;;;57.60;27.48;;;-3.00;99.90;;;;;;5015620;28;20058;-66
2021/12/11 06:49:03;;;;;;;50.20;27.40;;;-2.80;99.90;;;;;;5014635;28;20046;-66
2021/12/11 06:51:30;;;;;;;48.75;27.27;;;-2.70;99.90;;;;;;4997877;28;20133;-67
2021/12/11 06:53:59;;;;;;;50.15;26.50;;;-2.70;99.90;;;;;;4993927;28;20042;-67
2021/12/11 06:56:26;;;;;;;47.35;26.00;;;-2.70;99.90;;;;;;5007238;28;20033;-67
2021/12/11 06:58:52;;;;;;;50.50;26.88;;;-2.80;99.90;;;;;;4998358;28;20049;-67
2021/12/11 07:01:20;;;;;;;53.58;27.52;;;-2.80;99.90;;;;;;4994069;28;20101;-66
2021/12/11 07:03:45;;;;;;;53.55;28.02;;;-2.80;99.90;;;;;;4995138;28;20055;-66
2021/12/11 07:06:12;;;;;;;54.28;27.75;;;-1.50;99.90;;;;;;4994435;28;20050;-68
2021/12/11 07:08:39;;;;;;;50.35;27.98;;;-2.70;99.90;;;;;;4995976;28;20050;-68
2021/12/11 07:11:06;;;;;;;51.28;28.00;;;-2.70;99.90;;;;;;4995856;28;20054;-67
2021/12/11 07:13:32;;;;;;;52.53;27.90;;;-2.70;99.90;;;;;;5014361;28;20046;-66
2021/12/11 07:15:58;;;;;;;53.60;28.85;;;-2.10;99.90;;;;;;5015057;28;20052;-66
2021/12/11 07:18:27;;;;;;;63.05;30.30;;;-2.70;99.90;;;;;;5015072;28;20046;-68
2021/12/11 07:20:53;;;;;;;56.72;30.70;;;-2.70;99.90;;;;;;5015358;28;20046;-67
2021/12/11 07:23:19;;;;;;;55.45;29.42;;;-2.70;99.90;;;;;;4997102;28;20057;-67
2021/12/11 07:25:50;;;;;;;54.90;28.98;;;-2.70;99.90;;;;;;5015621;28;20335;-68
2021/12/11 07:28:16;;;;;;;50.03;27.00;;;-2.70;99.90;;;;;;5014953;28;20038;-67
2021/12/11 07:30:45;;;;;;;48.95;28.90;;;-1.90;99.90;;;;;;5015016;28;20104;-66
2021/12/11 07:33:12;;;;;;;48.70;28.17;;;-2.70;99.90;;;;;;4999617;28;20427;-66
2021/12/11 07:35:39;;;;;;;50.95;28.95;;;-2.80;99.90;;;;;;5002223;28;20390;-68
2021/12/11 07:38:05;;;;;;;50.40;28.63;;;-2.80;99.90;;;;;;5019090;28;20056;-67
2021/12/11 07:40:36;;;;;;;47.88;27.85;;;-2.80;99.90;;;;;;5018756;28;20125;-67
2021/12/11 07:43:03;;;;;;;53.30;27.92;;;-2.80;99.90;;;;;;4998171;28;20046;-66
2021/12/11 07:45:31;;;;;;;56.13;29.48;;;-2.80;99.90;;;;;;4999858;28;20050;-66
2021/12/11 07:47:57;;;;;;;57.70;29.02;;;-2.80;99.90;;;;;;5008221;28;20189;-68
2021/12/11 07:50:23;;;;;;;50.08;27.73;;;-2.80;99.90;;;;;;4979845;28;20086;-67
2021/12/11 07:52:49;;;;;;;56.03;28.30;;;-2.80;99.90;;;;;;4998599;28;20054;-67
2021/12/11 07:55:15;;;;;;;54.20;30.55;;;-2.80;99.90;;;;;;4981461;28;20057;-67
2021/12/11 07:57:41;;;;;;;58.55;30.13;;;-2.80;99.90;;;;;;4981106;28;20399;-68
2021/12/11 08:00:10;;;;;;;55.97;30.27;;;-2.70;99.90;;;;;;4996610;28;20042;-65
2021/12/11 08:02:35;;;;;;;56.20;30.27;;;-2.80;99.90;;;;;;4980253;28;20046;-66
2021/12/11 08:05:02;;;;;;;54.10;28.95;;;-2.70;99.90;;;;;;4980810;28;20050;-67
2021/12/11 08:07:28;;;;;;;60.38;30.00;;;-2.70;99.90;;;;;;4980688;28;20320;-66
2021/12/11 08:09:53;;;;;;;55.47;29.02;;;-2.70;99.90;;;;;;4997596;28;20046;-67
2021/12/11 08:12:19;;;;;;;64.03;31.95;;;-2.70;99.90;;;;;;4996242;28;20375;-66
2021/12/11 08:14:45;;;;;;;60.75;30.05;;;-2.70;99.90;;;;;;4998224;28;20050;-68
2021/12/11 08:17:11;;;;;;;62.25;30.48;;;-2.70;99.90;;;;;;4980824;28;20038;-66
2021/12/11 08:19:37;;;;;;;59.22;31.83;;;-2.60;99.90;;;;;;4997593;28;20074;-66
2021/12/11 08:22:07;;;;;;;65.43;33.30;;;-2.60;99.90;;;;;;4996453;28;20487;-67
2021/12/11 08:24:34;;;;;;;60.92;31.95;;;-2.60;99.90;;;;;;4980133;28;20068;-66
2021/12/11 08:27:04;;;;;;;70.30;34.88;;;-2.50;99.90;;;;;;4998011;28;20061;-68
2021/12/11 08:29:30;;;;;;;61.28;32.70;;;-2.50;99.90;;;;;;4980345;28;20046;-68
2021/12/11 08:31:58;;;;;;;59.03;32.47;;;-2.50;99.90;;;;;;4981075;28;20046;-67
2021/12/11 08:34:24;;;;;;;60.20;30.42;;;-2.50;99.90;;;;;;4998503;28;20042;-67
2021/12/11 08:36:50;;;;;;;68.30;34.35;;;-2.40;99.90;;;;;;4981180;28;20181;-65
2021/12/11 08:39:18;;;;;;;66.43;34.10;;;-2.50;99.90;;;;;;5000687;28;20046;-68
2021/12/11 08:41:48;;;;;;;68.57;33.08;;;-2.50;99.90;;;;;;4998039;28;20141;-66
2021/12/11 08:44:17;;;;;;;64.07;33.63;;;-2.30;99.90;;;;;;4980399;28;20497;-65
2021/12/11 08:46:47;;;;;;;63.95;32.97;;;-2.40;99.90;;;;;;4998125;28;20144;-67
2021/12/11 08:49:21;;;;;;;69.07;33.22;;;-2.40;99.90;;;;;;4980848;28;20054;-66
2021/12/11 08:52:00;;;;;;;63.15;33.05;;;-2.30;99.90;;;;;;4997718;28;20042;-66
2021/12/11 08:54:28;;;;;;;69.65;35.67;;;-2.30;99.90;;;;;;4997675;28;20333;-68
2021/12/11 08:56:55;;;;;;;62.35;34.58;;;-2.50;99.90;;;;;;4997551;28;20042;-67
2021/12/11 08:59:27;;;;;;;67.63;34.90;;;-2.30;99.90;;;;;;4997560;28;20046;-66
2021/12/11 09:02:07;;;;;;;74.50;35.95;;;-2.00;99.90;;;;;;4997754;28;20065;-66
2021/12/11 09:04:55;;;;;;;64.72;33.63;;;-2.20;99.90;;;;;;4997371;28;20054;-67
2021/12/11 09:07:44;;;;;;;77.88;36.50;;;-2.10;99.90;;;;;;4980963;28;20061;-66
2021/12/11 09:10:26;;;;;;;72.88;36.05;;;-2.10;99.90;;;;;;5016547;28;20467;-68
2021/12/11 09:13:09;;;;;;;67.10;35.55;;;-2.00;99.90;;;;;;5016709;28;20065;-67
2021/12/11 09:15:46;;;;;;;67.33;36.47;;;-2.00;99.90;;;;;;4999897;28;20213;-67
2021/12/11 09:18:35;;;;;;;75.68;38.25;;;-1.90;99.90;;;;;;5016982;28;20129;-67
2021/12/11 09:21:12;;;;;;;90.70;41.20;;;-1.90;99.90;;;;;;5016879;28;20050;-65
2021/12/11 09:23:48;;;;;;;92.13;41.28;;;-1.80;99.90;;;;;;4999348;28;20112;-67
2021/12/11 09:26:17;;;;;;;83.57;42.15;;;-1.70;99.90;;;;;;4999714;28;20068;-68
2021/12/11 09:28:50;;;;;;;90.68;42.38;;;-1.60;99.90;;;;;;5016605;28;20394;-66
2021/12/11 09:31:25;;;;;;;82.70;41.17;;;-1.60;99.90;;;;;;4999529;28;20092;-68
2021/12/11 09:33:59;;;;;;;77.63;40.33;;;-1.50;99.90;;;;;;4999100;28;20045;-66
2021/12/11 09:36:33;;;;;;;101.25;44.88;;;-1.50;99.90;;;;;;4998820;28;20042;-67
2021/12/11 09:39:12;;;;;;;;;;;-1.40;99.90;;;;;;5003081;28;20046;-66
2021/12/11 09:41:41;;;;;;;86.32;39.75;;;-1.30;99.90;;;;;;4980008;28;19929;-65
2021/12/11 09:44:12;;;;;;;96.68;41.55;;;-1.30;99.90;;;;;;4995848;28;20038;-66
2021/12/11 09:46:43;;;;;;;102.70;45.60;;;-1.20;99.90;;;;;;4999036;28;20053;-68
2021/12/11 09:49:12;;;;;;;107.93;44.97;;;-1.20;99.90;;;;;;4998685;28;20056;-67
2021/12/11 09:51:43;;;;;;;109.95;45.92;;;-1.20;99.90;;;;;;5014450;28;20425;-66
2021/12/11 09:54:14;;;;;;;120.25;46.90;;;-1.10;99.90;;;;;;5016613;28;20176;-66
2021/12/11 09:56:47;;;;;;;112.05;46.85;;;-1.00;99.90;;;;;;5015739;28;20401;-66
2021/12/11 09:59:17;;;;;;;106.63;45.93;;;-1.00;99.90;;;;;;4998528;28;20455;-66
2021/12/11 10:01:48;;;;;;;100.70;43.90;;;-0.30;99.90;;;;;;4999573;28;20068;-67
2021/12/11 10:04:28;;;;;;;130.27;46.97;;;-0.90;99.90;;;;;;5015943;28;20050;-67
2021/12/11 10:09:33;;;;;;;119.75;48.35;;;-0.70;99.90;;;;;;5015965;28;20057;-67
2021/12/11 10:12:01;;;;;;;113.60;46.58;;;-0.70;99.90;;;;;;4999346;28;20091;-68
2021/12/11 10:14:32;;;;;;;106.88;44.05;;;-0.60;99.90;;;;;;4998262;28;20050;-67
2021/12/11 10:17:01;;;;;;;92.63;42.47;;;-0.60;99.90;;;;;;5000331;28;20510;-67
2021/12/11 10:19:29;;;;;;;115.32;44.40;;;-0.60;99.90;;;;;;4994477;28;20454;-68
2021/12/11 10:22:01;;;;;;;97.28;41.80;;;-0.50;99.90;;;;;;4976828;28;20074;-66
2021/12/11 10:24:30;;;;;;;105.00;42.03;;;-0.30;99.90;;;;;;4978407;28;20126;-66
2021/12/11 10:26:57;;;;;;;104.20;43.88;;;-0.50;99.90;;;;;;4995700;28;20053;-66
2021/12/11 10:29:23;;;;;;;101.95;43.10;;;-0.40;99.90;;;;;;4995779;28;20072;-66
2021/12/11 10:31:54;;;;;;;102.05;42.55;;;-0.40;99.90;;;;;;4995927;28;20058;-66
2021/12/11 10:34:23;;;;;;;107.85;44.63;;;-0.40;99.90;;;;;;4996007;28;20451;-66
2021/12/11 10:37:00;;;;;;;104.90;42.70;;;-0.30;99.90;;;;;;4977312;28;20050;-67
2021/12/11 10:39:28;;;;;;;105.68;44.17;;;0.20;99.90;;;;;;4977793;28;20473;-67
2021/12/11 10:41:54;;;;;;;109.05;42.55;;;-0.20;99.90;;;;;;4960336;28;20054;-66
2021/12/11 10:44:28;;;;;;;100.13;40.95;;;-0.10;99.90;;;;;;4991967;28;20057;-66
2021/12/11 10:46:59;;;;;;;;;;;-0.10;99.90;;;;;;4984455;28;20108;-67
2021/12/11 10:49:26;;;;;;;102.28;41.95;;;0.00;99.90;;;;;;4993629;28;20306;-67
2021/12/11 10:52:01;;;;;;;111.15;44.03;;;0.00;99.90;;;;;;4980225;28;20054;-67
2021/12/11 10:54:27;;;;;;;107.80;43.90;;;0.10;99.90;;;;;;4995568;28;20165;-67
2021/12/11 10:56:54;;;;;;;108.00;44.95;;;0.10;99.90;;;;;;4978300;28;20050;-66
2021/12/11 10:59:24;;;;;;;103.45;42.85;;;0.90;99.90;;;;;;4978105;28;20050;-66
2021/12/11 11:02:06;;;;;;;109.40;44.08;;;0.30;99.90;;;;;;4978585;28;20073;-67
2021/12/11 11:04:40;;;;;;;108.22;43.70;;;0.40;99.90;;;;;;4995285;28;20069;-66
2021/12/11 11:07:07;;;;;;;114.47;45.22;;;0.40;99.90;;;;;;4996905;28;20057;-68
2021/12/11 11:09:32;;;;;;;108.93;44.60;;;0.50;99.90;;;;;;4981342;28;20474;-66
2021/12/11 11:12:03;;;;;;;102.57;43.97;;;0.50;99.90;;;;;;4980971;28;20084;-67
2021/12/11 11:14:30;;;;;;;93.45;41.15;;;0.50;99.90;;;;;;5003729;28;20049;-68
2021/12/11 11:17:00;;;;;;;96.50;42.53;;;0.50;99.90;;;;;;5005964;28;20054;-67
2021/12/11 11:19:29;;;;;;;93.20;43.25;;;0.60;99.90;;;;;;4977091;28;20467;-67
2021/12/11 11:21:58;;;;;;;104.72;43.22;;;0.60;99.90;;;;;;4994840;28;20367;-68
2021/12/11 11:24:32;;;;;;;112.60;44.20;;;0.60;99.90;;;;;;4977582;28;20141;-67
2021/12/11 11:26:59;;;;;;;94.25;39.75;;;0.60;99.90;;;;;;4978420;28;20243;-66
2021/12/11 11:29:28;;;;;;;97.25;41.35;;;0.60;99.90;;;;;;4995992;28;20368;-66
2021/12/11 11:31:57;;;;;;;91.60;43.03;;;0.70;99.90;;;;;;4978297;28;20122;-68
2021/12/11 11:34:26;;;;;;;104.13;43.35;;;0.80;99.90;;;;;;4977667;28;20057;-67
2021/12/11 11:36:54;;;;;;;109.10;43.50;;;0.70;99.90;;;;;;4978230;28;20064;-68
2021/12/11 11:39:21;;;;;;;112.40;46.58;;;0.80;99.90;;;;;;4991826;28;20062;-67
2021/12/11 11:42:01;;;;;;;106.13;43.15;;;0.90;99.90;;;;;;4996196;28;20137;-68
2021/12/11 11:44:28;;;;;;;100.75;45.05;;;1.00;99.90;;;;;;4998480;28;20124;-67
2021/12/11 11:46:56;;;;;;;100.07;44.10;;;1.10;99.90;;;;;;4990364;28;20042;-67
2021/12/11 11:49:22;;;;;;;98.00;42.97;;;1.10;99.90;;;;;;4992042;28;20096;-68
2021/12/11 11:52:00;;;;;;;97.80;43.30;;;1.40;99.90;;;;;;5001641;28;20053;-67
2021/12/11 11:54:28;;;;;;;102.28;44.60;;;1.40;99.90;;;;;;4997435;28;20046;-67
2021/12/11 11:57:04;;;;;;;105.43;45.00;;;1.70;99.90;;;;;;4997608;28;20065;-66
2021/12/11 11:59:30;;;;;;;103.50;43.80;;;1.70;99.90;;;;;;4977225;28;20445;-68
2021/12/11 12:02:03;;;;;;;102.80;44.53;;;1.80;99.90;;;;;;4995129;28;20042;-68
2021/12/11 12:04:31;;;;;;;91.32;41.20;;;1.90;99.90;;;;;;4977936;28;20481;-67
2021/12/11 12:07:00;;;;;;;94.53;41.05;;;2.00;99.90;;;;;;4994614;28;20050;-67
2021/12/11 12:09:29;;;;;;;99.50;41.83;;;2.10;99.90;;;;;;4994703;28;20054;-67
2021/12/11 12:11:58;;;;;;;97.70;39.70;;;2.20;99.90;;;;;;4977495;28;20427;-67
2021/12/11 12:14:27;;;;;;;82.75;40.47;;;2.20;99.90;;;;;;4994821;28;20126;-68
2021/12/11 12:16:53;;;;;;;86.10;38.45;;;2.30;99.90;;;;;;4994911;28;20121;-68
2021/12/11 12:19:21;;;;;;;79.45;38.65;;;2.40;99.90;;;;;;4978964;28;20077;-67
2021/12/11 12:21:52;;;;;;;73.13;37.30;;;2.40;99.90;;;;;;4980915;28;20057;-68
2021/12/11 12:24:22;;;;;;;76.07;38.03;;;2.50;99.90;;;;;;4980638;28;20129;-70
2021/12/11 12:26:50;;;;;;;73.28;35.92;;;2.60;99.90;;;;;;4988393;28;20078;-68
2021/12/11 12:29:19;;;;;;;68.43;36.08;;;2.60;99.90;;;;;;4980786;28;20057;-66
2021/12/11 12:31:57;;;;;;;75.28;37.25;;;2.70;99.90;;;;;;4998207;28;20105;-69
2021/12/11 12:34:25;;;;;;;63.83;34.88;;;2.80;99.90;;;;;;4997745;28;20038;-68
2021/12/11 12:36:53;;;;;;;62.65;34.83;;;2.80;99.90;;;;;;4980580;28;20450;-68
2021/12/11 12:39:24;;;;;;;60.83;33.88;;;2.90;99.90;;;;;;4997355;28;20139;-67
2021/12/11 12:42:03;;;;;;;65.78;34.25;;;2.90;99.90;;;;;;4980462;28;20187;-70
2021/12/11 12:44:30;;;;;;;63.50;32.90;;;3.00;99.90;;;;;;4997838;28;20058;-69
2021/12/11 12:47:16;;;;;;;65.00;32.78;;;3.00;99.90;;;;;;4980618;28;20051;-67
2021/12/11 12:49:46;;;;;;;60.17;33.42;;;3.00;99.90;;;;;;4980323;28;20046;-68
2021/12/11 12:52:18;;;;;;;56.20;32.28;;;3.00;99.90;;;;;;4997801;28;20355;-70
2021/12/11 12:54:44;;;;;;;59.03;32.60;;;3.00;99.90;;;;;;4980357;28;20046;-71
2021/12/11 12:57:24;;;;;;;59.90;32.78;;;2.90;99.90;;;;;;4992075;28;20053;-70
2021/12/11 13:00:13;;;;;;;58.75;31.98;;;2.90;99.90;;;;;;4979892;28;20050;-68